Stephen Scott — WCW8842 — position and weather

sailwx.info

Track history (hours):
 
Tides and Currents Weather Stations Pressure Air Temp Water Temp Dewpoint Dewpoint Depression Visibility Wind Speed Wind Dir Waves Ship Positions

Stephen Scott

Owner: H A REINAUER INC, STATEN ISLAND, NY. More information available from US FCC via Universal Licensing System and Coast Guard Vessel Documentation Center.

Last reported at 2015-Jan-24 19:25 UTC. Time now 2015-Jan-25 18:21 UTC.
Position N 40°52' W 073°56'.

Length 30 m; draft 2.5 m.

Type: Towing. MMSI: 366245490.

Date/timePositionNaut miles runAvg speedWind from/ knotsBaromVisibWave heightAir tempDewpointWater temp
2015-Jan-24 19:25N 40°52' W 073°56'8 8.8
2015-Jan-24 18:33N 40°45' W 074°01'8 7.9
2015-Jan-24 17:33N 40°39' W 074°07'10 0.8
2015-Jan-24 05:06N 40°31' W 074°16'0 0.0
2015-Jan-24 02:33N 40°31' W 074°16'0 0.0
2015-Jan-23 23:06N 40°31' W 074°16'1 0.2
2015-Jan-23 19:23N 40°31' W 074°15'1 0.5
2015-Jan-23 18:23N 40°32' W 074°15'6 7.8
2015-Jan-23 17:33N 40°38' W 074°12'7 7.2
2015-Jan-23 16:33N 40°40' W 074°03'1 1.5
2015-Jan-23 15:33N 40°40' W 074°01'0 0.0
2015-Jan-23 14:33N 40°40' W 074°01'0 0.0
2015-Jan-23 13:33N 40°40' W 074°01'0 0.0
2015-Jan-23 12:33N 40°40' W 074°01'0 0.0
2015-Jan-23 11:33N 40°40' W 074°01'0 0.0
2015-Jan-23 10:33N 40°40' W 074°01'2 2.4
2015-Jan-23 09:33N 40°39' W 074°04'1 1.2
2015-Jan-23 08:33N 40°39' W 074°05'2 2.0
2015-Jan-23 07:25N 40°38' W 074°08'0 0.3
2015-Jan-23 06:33N 40°39' W 074°07'3 2.0
2015-Jan-23 05:17N 40°41' W 074°09'0 0.3
2015-Jan-23 04:33N 40°41' W 074°09'0 0.3
2015-Jan-23 03:29N 40°41' W 074°09'3 2.5
2015-Jan-23 02:26N 40°38' W 074°08'0 0.0
2015-Jan-23 01:26N 40°38' W 074°08'0 0.0
2015-Jan-23 00:32N 40°38' W 074°08'0 0.0
2015-Jan-22 23:32N 40°38' W 074°08'0 0.0
2015-Jan-22 22:32N 40°38' W 074°08'0 0.0
2015-Jan-22 21:27N 40°38' W 074°08'3 3.8
2015-Jan-22 20:33N 40°38' W 074°12'3 3.2
2015-Jan-22 19:28N 40°38' W 074°08'5 5.5
2015-Jan-22 18:33N 40°40' W 074°02'1 0.6
2015-Jan-22 17:32N 40°40' W 074°01'0 0.0
2015-Jan-22 16:32N 40°40' W 074°01'3 3.0
2015-Jan-22 15:28N 40°39' W 074°05'0 0.0
2015-Jan-22 14:28N 40°39' W 074°05'3 2.9
2015-Jan-22 13:33N 40°39' W 074°09'3 0.4
2015-Jan-22 07:30N 40°38' W 074°12'0 0.2
2015-Jan-22 06:23N 40°38' W 074°12'2 1.0
2015-Jan-22 04:19N 40°36' W 074°12'3 0.6
2015-Jan-21 23:29N 40°38' W 074°11'0 0.1
2015-Jan-21 22:41N 40°39' W 074°11'1 7.0
2015-Jan-21 22:33N 40°39' W 074°10'6 6.1
2015-Jan-21 21:32N 40°40' W 074°02'0 0.0
2015-Jan-21 20:32N 40°40' W 074°02'0 0.0
2015-Jan-21 19:32N 40°40' W 074°02'0 0.0
2015-Jan-21 18:29N 40°40' W 074°02'0 0.0
2015-Jan-21 17:29N 40°40' W 074°02'0 0.0
2015-Jan-21 16:32N 40°40' W 074°02'0 0.0
2015-Jan-21 15:32N 40°40' W 074°02'0 0.2
2015-Jan-21 14:32N 40°40' W 074°02'0 0.1
2015-Jan-21 13:29N 40°40' W 074°02'2 2.1
2015-Jan-21 12:33N 40°39' W 074°04'3 2.5
2015-Jan-21 11:28N 40°40' W 074°01'0 0.0
2015-Jan-21 10:28N 40°40' W 074°01'0 0.5
2015-Jan-21 09:33N 40°40' W 074°00'0 0.4
2015-Jan-21 08:32N 40°40' W 074°01'0 0.0
2015-Jan-21 07:31N 40°40' W 074°01'0 0.0
2015-Jan-21 06:31N 40°40' W 074°01'0 0.0
2015-Jan-21 05:31N 40°40' W 074°01'0 0.0
2015-Jan-21 04:31N 40°40' W 074°01'0 0.0
2015-Jan-21 03:31N 40°40' W 074°01'0 0.0
2015-Jan-21 02:31N 40°40' W 074°01'2 2.0
2015-Jan-21 01:34N 40°39' W 074°03'0 0.3
2015-Jan-21 00:33N 40°40' W 074°03'2 1.6
2015-Jan-20 23:32N 40°40' W 074°01'0 0.0
2015-Jan-20 22:32N 40°40' W 074°01'0 0.0
2015-Jan-20 21:33N 40°40' W 074°01'0 0.4
2015-Jan-20 20:33N 40°40' W 074°01'4 4.2
2015-Jan-20 19:31N 40°39' W 074°07'1 0.4
2015-Jan-20 17:06N 40°38' W 074°08'0 0.0
2015-Jan-20 16:30N 40°38' W 074°08'0 0.0
2015-Jan-20 15:30N 40°38' W 074°08'0 0.0
2015-Jan-20 14:30N 40°38' W 074°08'0 0.0
2015-Jan-20 13:30N 40°38' W 074°08'0 0.0
2015-Jan-20 12:29N 40°38' W 074°08'0 0.0
2015-Jan-20 11:23N 40°38' W 074°08'0 0.0
2015-Jan-20 10:29N 40°38' W 074°08'0 0.0
2015-Jan-20 09:17N 40°38' W 074°08'0 0.0
2015-Jan-20 08:14N 40°38' W 074°08'0 0.0
2015-Jan-20 07:29N 40°38' W 074°08'0 0.4
2015-Jan-20 06:24N 40°39' W 074°07'0 0.2
2015-Jan-20 04:04N 40°38' W 074°08'0 0.0
2015-Jan-20 02:04N 40°38' W 074°08'0 0.0
2015-Jan-20 01:24N 40°38' W 074°08'1 1.2
2015-Jan-20 00:34N 40°39' W 074°07'4 4.3
2015-Jan-19 23:33N 40°40' W 074°01'0 0.1
2015-Jan-19 22:32N 40°40' W 074°01'0 0.0
2015-Jan-19 21:32N 40°40' W 074°01'6 6.0
2015-Jan-19 20:33N 40°38' W 074°08'3 2.1
2015-Jan-19 19:03N 40°38' W 074°12'3 4.7
2015-Jan-19 18:31N 40°39' W 074°09'1 1.3
2015-Jan-19 17:33N 40°38' W 074°08'0 0.0
2015-Jan-19 16:32N 40°38' W 074°08'0 0.0
2015-Jan-19 15:32N 40°38' W 074°08'5 4.8
2015-Jan-19 14:34N 40°40' W 074°02'2 2.5
2015-Jan-19 13:33N 40°42' W 073°60'8 6.7
2015-Jan-19 12:22N 40°48' W 073°53'32 8.3
2015-Jan-19 08:31N 41°03' W 073°15'8 8.3
2015-Jan-19 07:33N 41°06' W 073°05'8 8.3
2015-Jan-19 06:33N 41°11' W 072°57'6 5.0
2015-Jan-19 05:17N 41°17' W 072°55'0 0.0
2015-Jan-19 04:20N 41°17' W 072°55'0 0.0
2015-Jan-19 02:29N 41°17' W 072°55'0 0.0
2015-Jan-19 01:20N 41°17' W 072°55'0 0.0
2015-Jan-19 00:11N 41°17' W 072°55'0 0.0
2015-Jan-18 20:05N 41°17' W 072°55'3 5.2
2015-Jan-18 19:33N 41°15' W 072°55'8 7.8
2015-Jan-18 18:33N 41°08' W 073°01'10 9.3
2015-Jan-18 17:29N 41°03' W 073°13'22 9.0
2015-Jan-18 15:04N 40°55' W 073°39'13 7.1
2015-Jan-18 13:14N 40°48' W 073°54'5 7.7
2015-Jan-18 12:33N 40°44' W 073°58'9 8.4
2015-Jan-18 11:32N 40°39' W 074°07'5 4.4
2015-Jan-18 10:24N 40°36' W 074°12'4 0.8
2015-Jan-18 06:11N 40°33' W 074°15'0 0.0
2015-Jan-18 01:17N 40°33' W 074°15'0 0.1
2015-Jan-17 20:05N 40°32' W 074°15'0 0.3
2015-Jan-17 19:10N 40°33' W 074°15'5 7.1
2015-Jan-17 18:31N 40°37' W 074°12'3 2.5
2015-Jan-17 17:28N 40°38' W 074°10'0 0.0
2015-Jan-17 16:28N 40°38' W 074°10'0 0.0
2015-Jan-17 15:22N 40°38' W 074°10'1 1.5
2015-Jan-17 14:29N 40°38' W 074°08'0 0.0
2015-Jan-17 13:29N 40°38' W 074°08'0 0.0
2015-Jan-17 12:29N 40°38' W 074°08'0 0.0
2015-Jan-17 11:29N 40°38' W 074°08'0 0.0
2015-Jan-17 10:29N 40°38' W 074°08'0 0.0
2015-Jan-17 09:29N 40°38' W 074°08'0 0.0
2015-Jan-17 08:29N 40°38' W 074°08'0 0.0
2015-Jan-17 07:29N 40°38' W 074°08'0 0.0
2015-Jan-17 06:29N 40°38' W 074°08'4 4.0
2015-Jan-17 05:31N 40°37' W 074°12'1 0.3
2015-Jan-17 03:33N 40°37' W 074°12'5 5.3
2015-Jan-17 02:33N 40°39' W 074°05'2 1.8
2015-Jan-17 01:32N 40°38' W 074°08'1 1.1
2015-Jan-17 00:30N 40°38' W 074°09'5 5.6
2015-Jan-16 23:32N 40°39' W 074°02'0 0.0
2015-Jan-16 22:32N 40°39' W 074°02'0 0.0
2015-Jan-16 21:32N 40°39' W 074°02'0 0.0
2015-Jan-16 20:32N 40°39' W 074°02'0 0.0
2015-Jan-16 19:32N 40°39' W 074°02'0 0.0
2015-Jan-16 18:32N 40°39' W 074°02'0 0.0
2015-Jan-16 17:32N 40°39' W 074°02'0 0.1
2015-Jan-16 16:32N 40°39' W 074°02'4 4.2
2015-Jan-16 15:31N 40°38' W 074°08'4 4.4
2015-Jan-16 14:33N 40°39' W 074°02'0 0.0
2015-Jan-16 13:33N 40°39' W 074°02'0 0.0
2015-Jan-16 12:30N 40°39' W 074°02'0 0.1
2015-Jan-16 11:33N 40°39' W 074°02'0 0.1
2015-Jan-16 10:33N 40°40' W 074°02'0 0.0
2015-Jan-16 09:33N 40°40' W 074°02'0 0.0
2015-Jan-16 08:33N 40°40' W 074°02'0 0.0
2015-Jan-16 07:33N 40°40' W 074°02'0 0.0
2015-Jan-16 06:33N 40°39' W 074°02'0 0.1
2015-Jan-16 05:33N 40°39' W 074°02'0 0.1
2015-Jan-16 04:33N 40°39' W 074°02'0 0.0
2015-Jan-16 03:33N 40°39' W 074°02'0 0.0
2015-Jan-16 02:33N 40°39' W 074°02'0 0.0
2015-Jan-16 01:33N 40°39' W 074°02'0 0.1
2015-Jan-16 00:33N 40°39' W 074°02'6 6.1
2015-Jan-15 23:29N 40°39' W 074°11'7 6.5
2015-Jan-15 22:24N 40°32' W 074°15'0 0.2
2015-Jan-15 20:24N 40°33' W 074°15'0 0.0
2015-Jan-15 16:20N 40°33' W 074°15'0 0.1
2015-Jan-15 15:26N 40°33' W 074°15'2 1.2
2015-Jan-15 14:06N 40°31' W 074°15'2 1.0
2015-Jan-15 12:26N 40°33' W 074°15'0 0.0
2015-Jan-15 11:11N 40°33' W 074°15'1 0.6
2015-Jan-15 10:24N 40°32' W 074°15'1 0.6
2015-Jan-15 09:33N 40°33' W 074°15'7 6.8
2015-Jan-15 08:33N 40°39' W 074°11'4 3.9
2015-Jan-15 07:25N 40°42' W 074°07'1 1.3
2015-Jan-15 06:32N 40°41' W 074°08'0 0.0
2015-Jan-15 05:32N 40°41' W 074°08'0 0.0
2015-Jan-15 04:32N 40°41' W 074°08'0 0.0
2015-Jan-15 03:32N 40°41' W 074°08'0 0.0
2015-Jan-15 02:32N 40°41' W 074°08'1 0.6
2015-Jan-15 01:33N 40°41' W 074°08'2 2.3
2015-Jan-15 00:32N 40°38' W 074°08'0 0.0
2015-Jan-14 23:29N 40°38' W 074°08'0 0.0
2015-Jan-14 22:31N 40°38' W 074°08'0 0.0
2015-Jan-14 21:31N 40°38' W 074°08'0 0.0
2015-Jan-14 20:34N 40°38' W 074°08'4 3.7
2015-Jan-14 19:31N 40°39' W 074°03'  
Track history (hours):
 
Tides and Currents Weather Stations Pressure Air Temp Water Temp Dewpoint Dewpoint Depression Visibility Wind Speed Wind Dir Waves Ship Positions

Stephen Scott

Owner: H A REINAUER INC, STATEN ISLAND, NY. More information available from US FCC via Universal Licensing System and Coast Guard Vessel Documentation Center.

Last reported at 2015-Jan-24 19:25 UTC. Time now 2015-Jan-25 18:21 UTC.
Position N 40°52' W 073°56'.

Length 30 m; draft 2.5 m.

Type: Towing. MMSI: 366245490.

Date/timePositionNaut miles runAvg speedWind from/ knotsBaromVisibWave heightAir tempDewpointWater temp
2015-Jan-24 19:25N 40°52' W 073°56'8 8.8
2015-Jan-24 18:33N 40°45' W 074°01'8 7.9
2015-Jan-24 17:33N 40°39' W 074°07'10 0.8
2015-Jan-24 05:06N 40°31' W 074°16'0 0.0
2015-Jan-24 02:33N 40°31' W 074°16'0 0.0
2015-Jan-23 23:06N 40°31' W 074°16'1 0.2
2015-Jan-23 19:23N 40°31' W 074°15'1 0.5
2015-Jan-23 18:23N 40°32' W 074°15'6 7.8
2015-Jan-23 17:33N 40°38' W 074°12'7 7.2
2015-Jan-23 16:33N 40°40' W 074°03'1 1.5
2015-Jan-23 15:33N 40°40' W 074°01'0 0.0
2015-Jan-23 14:33N 40°40' W 074°01'0 0.0
2015-Jan-23 13:33N 40°40' W 074°01'0 0.0
2015-Jan-23 12:33N 40°40' W 074°01'0 0.0
2015-Jan-23 11:33N 40°40' W 074°01'0 0.0
2015-Jan-23 10:33N 40°40' W 074°01'2 2.4
2015-Jan-23 09:33N 40°39' W 074°04'1 1.2
2015-Jan-23 08:33N 40°39' W 074°05'2 2.0
2015-Jan-23 07:25N 40°38' W 074°08'0 0.3
2015-Jan-23 06:33N 40°39' W 074°07'3 2.0
2015-Jan-23 05:17N 40°41' W 074°09'0 0.3
2015-Jan-23 04:33N 40°41' W 074°09'0 0.3
2015-Jan-23 03:29N 40°41' W 074°09'3 2.5
2015-Jan-23 02:26N 40°38' W 074°08'0 0.0
2015-Jan-23 01:26N 40°38' W 074°08'0 0.0
2015-Jan-23 00:32N 40°38' W 074°08'0 0.0
2015-Jan-22 23:32N 40°38' W 074°08'0 0.0
2015-Jan-22 22:32N 40°38' W 074°08'0 0.0
2015-Jan-22 21:27N 40°38' W 074°08'3 3.8
2015-Jan-22 20:33N 40°38' W 074°12'3 3.2
2015-Jan-22 19:28N 40°38' W 074°08'5 5.5
2015-Jan-22 18:33N 40°40' W 074°02'1 0.6
2015-Jan-22 17:32N 40°40' W 074°01'0 0.0
2015-Jan-22 16:32N 40°40' W 074°01'3 3.0
2015-Jan-22 15:28N 40°39' W 074°05'0 0.0
2015-Jan-22 14:28N 40°39' W 074°05'3 2.9
2015-Jan-22 13:33N 40°39' W 074°09'3 0.4
2015-Jan-22 07:30N 40°38' W 074°12'0 0.2
2015-Jan-22 06:23N 40°38' W 074°12'2 1.0
2015-Jan-22 04:19N 40°36' W 074°12'3 0.6
2015-Jan-21 23:29N 40°38' W 074°11'0 0.1
2015-Jan-21 22:41N 40°39' W 074°11'1 7.0
2015-Jan-21 22:33N 40°39' W 074°10'6 6.1
2015-Jan-21 21:32N 40°40' W 074°02'0 0.0
2015-Jan-21 20:32N 40°40' W 074°02'0 0.0
2015-Jan-21 19:32N 40°40' W 074°02'0 0.0
2015-Jan-21 18:29N 40°40' W 074°02'0 0.0
2015-Jan-21 17:29N 40°40' W 074°02'0 0.0
2015-Jan-21 16:32N 40°40' W 074°02'0 0.0
2015-Jan-21 15:32N 40°40' W 074°02'0 0.2
2015-Jan-21 14:32N 40°40' W 074°02'0 0.1
2015-Jan-21 13:29N 40°40' W 074°02'2 2.1
2015-Jan-21 12:33N 40°39' W 074°04'3 2.5
2015-Jan-21 11:28N 40°40' W 074°01'0 0.0
2015-Jan-21 10:28N 40°40' W 074°01'0 0.5
2015-Jan-21 09:33N 40°40' W 074°00'0 0.4
2015-Jan-21 08:32N 40°40' W 074°01'0 0.0
2015-Jan-21 07:31N 40°40' W 074°01'0 0.0
2015-Jan-21 06:31N 40°40' W 074°01'0 0.0
2015-Jan-21 05:31N 40°40' W 074°01'0 0.0
2015-Jan-21 04:31N 40°40' W 074°01'0 0.0
2015-Jan-21 03:31N 40°40' W 074°01'0 0.0
2015-Jan-21 02:31N 40°40' W 074°01'2 2.0
2015-Jan-21 01:34N 40°39' W 074°03'0 0.3
2015-Jan-21 00:33N 40°40' W 074°03'2 1.6
2015-Jan-20 23:32N 40°40' W 074°01'0 0.0
2015-Jan-20 22:32N 40°40' W 074°01'0 0.0
2015-Jan-20 21:33N 40°40' W 074°01'0 0.4
2015-Jan-20 20:33N 40°40' W 074°01'4 4.2
2015-Jan-20 19:31N 40°39' W 074°07'1 0.4
2015-Jan-20 17:06N 40°38' W 074°08'0 0.0
2015-Jan-20 16:30N 40°38' W 074°08'0 0.0
2015-Jan-20 15:30N 40°38' W 074°08'0 0.0
2015-Jan-20 14:30N 40°38' W 074°08'0 0.0
2015-Jan-20 13:30N 40°38' W 074°08'0 0.0
2015-Jan-20 12:29N 40°38' W 074°08'0 0.0
2015-Jan-20 11:23N 40°38' W 074°08'0 0.0
2015-Jan-20 10:29N 40°38' W 074°08'0 0.0
2015-Jan-20 09:17N 40°38' W 074°08'0 0.0
2015-Jan-20 08:14N 40°38' W 074°08'0 0.0
2015-Jan-20 07:29N 40°38' W 074°08'0 0.4
2015-Jan-20 06:24N 40°39' W 074°07'0 0.2
2015-Jan-20 04:04N 40°38' W 074°08'0 0.0
2015-Jan-20 02:04N 40°38' W 074°08'0 0.0
2015-Jan-20 01:24N 40°38' W 074°08'1 1.2
2015-Jan-20 00:34N 40°39' W 074°07'4 4.3
2015-Jan-19 23:33N 40°40' W 074°01'0 0.1
2015-Jan-19 22:32N 40°40' W 074°01'0 0.0
2015-Jan-19 21:32N 40°40' W 074°01'6 6.0
2015-Jan-19 20:33N 40°38' W 074°08'3 2.1
2015-Jan-19 19:03N 40°38' W 074°12'3 4.7
2015-Jan-19 18:31N 40°39' W 074°09'1 1.3
2015-Jan-19 17:33N 40°38' W 074°08'0 0.0
2015-Jan-19 16:32N 40°38' W 074°08'0 0.0
2015-Jan-19 15:32N 40°38' W 074°08'5 4.8
2015-Jan-19 14:34N 40°40' W 074°02'2 2.5
2015-Jan-19 13:33N 40°42' W 073°60'8 6.7
2015-Jan-19 12:22N 40°48' W 073°53'32 8.3
2015-Jan-19 08:31N 41°03' W 073°15'8 8.3
2015-Jan-19 07:33N 41°06' W 073°05'8 8.3
2015-Jan-19 06:33N 41°11' W 072°57'6 5.0
2015-Jan-19 05:17N 41°17' W 072°55'0 0.0
2015-Jan-19 04:20N 41°17' W 072°55'0 0.0
2015-Jan-19 02:29N 41°17' W 072°55'0 0.0
2015-Jan-19 01:20N 41°17' W 072°55'0 0.0
2015-Jan-19 00:11N 41°17' W 072°55'0 0.0
2015-Jan-18 20:05N 41°17' W 072°55'3 5.2
2015-Jan-18 19:33N 41°15' W 072°55'8 7.8
2015-Jan-18 18:33N 41°08' W 073°01'10 9.3
2015-Jan-18 17:29N 41°03' W 073°13'22 9.0
2015-Jan-18 15:04N 40°55' W 073°39'13 7.1
2015-Jan-18 13:14N 40°48' W 073°54'5 7.7
2015-Jan-18 12:33N 40°44' W 073°58'9 8.4
2015-Jan-18 11:32N 40°39' W 074°07'5 4.4
2015-Jan-18 10:24N 40°36' W 074°12'4 0.8
2015-Jan-18 06:11N 40°33' W 074°15'0 0.0
2015-Jan-18 01:17N 40°33' W 074°15'0 0.1
2015-Jan-17 20:05N 40°32' W 074°15'0 0.3
2015-Jan-17 19:10N 40°33' W 074°15'5 7.1
2015-Jan-17 18:31N 40°37' W 074°12'3 2.5
2015-Jan-17 17:28N 40°38' W 074°10'0 0.0
2015-Jan-17 16:28N 40°38' W 074°10'0 0.0
2015-Jan-17 15:22N 40°38' W 074°10'1 1.5
2015-Jan-17 14:29N 40°38' W 074°08'0 0.0
2015-Jan-17 13:29N 40°38' W 074°08'0 0.0
2015-Jan-17 12:29N 40°38' W 074°08'0 0.0
2015-Jan-17 11:29N 40°38' W 074°08'0 0.0
2015-Jan-17 10:29N 40°38' W 074°08'0 0.0
2015-Jan-17 09:29N 40°38' W 074°08'0 0.0
2015-Jan-17 08:29N 40°38' W 074°08'0 0.0
2015-Jan-17 07:29N 40°38' W 074°08'0 0.0
2015-Jan-17 06:29N 40°38' W 074°08'4 4.0
2015-Jan-17 05:31N 40°37' W 074°12'1 0.3
2015-Jan-17 03:33N 40°37' W 074°12'5 5.3
2015-Jan-17 02:33N 40°39' W 074°05'2 1.8
2015-Jan-17 01:32N 40°38' W 074°08'1 1.1
2015-Jan-17 00:30N 40°38' W 074°09'5 5.6
2015-Jan-16 23:32N 40°39' W 074°02'0 0.0
2015-Jan-16 22:32N 40°39' W 074°02'0 0.0
2015-Jan-16 21:32N 40°39' W 074°02'0 0.0
2015-Jan-16 20:32N 40°39' W 074°02'0 0.0
2015-Jan-16 19:32N 40°39' W 074°02'0 0.0
2015-Jan-16 18:32N 40°39' W 074°02'0 0.0
2015-Jan-16 17:32N 40°39' W 074°02'0 0.1
2015-Jan-16 16:32N 40°39' W 074°02'4 4.2
2015-Jan-16 15:31N 40°38' W 074°08'4 4.4
2015-Jan-16 14:33N 40°39' W 074°02'0 0.0
2015-Jan-16 13:33N 40°39' W 074°02'0 0.0
2015-Jan-16 12:30N 40°39' W 074°02'0 0.1
2015-Jan-16 11:33N 40°39' W 074°02'0 0.1
2015-Jan-16 10:33N 40°40' W 074°02'0 0.0
2015-Jan-16 09:33N 40°40' W 074°02'0 0.0
2015-Jan-16 08:33N 40°40' W 074°02'0 0.0
2015-Jan-16 07:33N 40°40' W 074°02'0 0.0
2015-Jan-16 06:33N 40°39' W 074°02'0 0.1
2015-Jan-16 05:33N 40°39' W 074°02'0 0.1
2015-Jan-16 04:33N 40°39' W 074°02'0 0.0
2015-Jan-16 03:33N 40°39' W 074°02'0 0.0
2015-Jan-16 02:33N 40°39' W 074°02'0 0.0
2015-Jan-16 01:33N 40°39' W 074°02'0 0.1
2015-Jan-16 00:33N 40°39' W 074°02'6 6.1
2015-Jan-15 23:29N 40°39' W 074°11'7 6.5
2015-Jan-15 22:24N 40°32' W 074°15'0 0.2
2015-Jan-15 20:24N 40°33' W 074°15'0 0.0
2015-Jan-15 16:20N 40°33' W 074°15'0 0.1
2015-Jan-15 15:26N 40°33' W 074°15'2 1.2
2015-Jan-15 14:06N 40°31' W 074°15'2 1.0
2015-Jan-15 12:26N 40°33' W 074°15'0 0.0
2015-Jan-15 11:11N 40°33' W 074°15'1 0.6
2015-Jan-15 10:24N 40°32' W 074°15'1 0.6
2015-Jan-15 09:33N 40°33' W 074°15'7 6.8
2015-Jan-15 08:33N 40°39' W 074°11'4 3.9
2015-Jan-15 07:25N 40°42' W 074°07'1 1.3
2015-Jan-15 06:32N 40°41' W 074°08'0 0.0
2015-Jan-15 05:32N 40°41' W 074°08'0 0.0
2015-Jan-15 04:32N 40°41' W 074°08'0 0.0
2015-Jan-15 03:32N 40°41' W 074°08'0 0.0
2015-Jan-15 02:32N 40°41' W 074°08'1 0.6
2015-Jan-15 01:33N 40°41' W 074°08'2 2.3
2015-Jan-15 00:32N 40°38' W 074°08'0 0.0
2015-Jan-14 23:29N 40°38' W 074°08'0 0.0
2015-Jan-14 22:31N 40°38' W 074°08'0 0.0
2015-Jan-14 21:31N 40°38' W 074°08'0 0.0
2015-Jan-14 20:34N 40°38' W 074°08'4 3.7
2015-Jan-14 19:31N 40°39' W 074°03'  

Dump ship's entire track history